KDPG/DPG METAR and TAF weather

Enter ICAO airport designator
Station Type Date Time Source
KDPG METAR 2021/07/29 18:55 UTC NOAA

KDPG 291855Z 04002KT 20SM FEW070 FEW100 SCT140 BKN180 29/14 A3017 RMK SLP161 T02870144


Station Type Date Time Source
KDPG Decoded METAR 2021/07/29 18:55 UTC NOAA

Dugway Proving Grounds, UT, United States (KDPG) 40-10N 112-56W 1325M
Jul 29, 2021 - 02:55 PM EDT / 2021.07.29 1855 UTC
Wind: from the NE (040 degrees) at 2 MPH (2 KT):0
Visibility: 20 mile(s):0
Sky conditions: mostly cloudy
Temperature: 83.7 F (28.7 C)
Dew Point: 57.9 F (14.4 C)
Relative Humidity: 41%
Pressure (altimeter): 30.17 in. Hg (1021 hPa)
ob: KDPG 291855Z 04002KT 20SM FEW070 FEW100 SCT140 BKN180 29/14 A3017 RMK SLP161 T02870144
cycle: 19

Station Type Date Time Source
KDPG TAF UTC NOAA

Error!

Example: see airport list